Florence Regional Airport
KFLO : now visible

Airfield :











YOU CAN JOIN US ON...

 
LOGIN :

Register | Disclaimer

   EN    FR    IT 

 









Legend :    VFR   Marginal VFR   IFR   Intensive IFR   Very Intensive IFR
Visi :
Ceiling :
>= 8 km
>= 3000ft
5 to 8 km
1000 to 3000 ft
1500m to 5 km
500 to 1000 ft
800 to 1500m
200 to 500 ft
< 800m
< 200 ft
Symbols :   Thunderstorms  Fog  Heavy snow  Heavy precipitations  Wind > 20 kt






- Airport Elevation : 146 ft
- IATA code : FLO


KFLO - Florence Regional

CURRENT METAR :
  • 201553Z 05006KT 10SM CLR 23/18 A3023 RMK AO2 SLP235 T02330178

EXPIRED METARs :
  • 201453Z 35006KT 10SM CLR 22/17 A3023 RMK AO2 SLP234 T02170172 51006
  • 201353Z 36005KT 10SM CLR 19/17 A3023 RMK AO2 SLP233 T01940167

TAF KFLO
Valid from the 20 at 12:00 until the 21 at 12:00 UTC


201120Z 2012/2112 VRB04KT 6SM BR SCT060
FM210600 00000KT 5SM BR BKN150
FM210900 VRB03KT 1 1/2SM BR BKN060
FM211100 VRB04KT 1SM BR BKN005
KZJX FIR / North America



MET'MAP, your aeronautical weather chart ! - Copyright ORBIFLY December 2007 - Disclaimer

ORBIFLY MET'MAP TEAM :

Programming & Development : Alexandra Zaïnal
Concept & original design : Baudouin d'Aumeries
Assistance for programming : Marc-Olivier Méhu
Technical & hardware support : Manuel Goepfert

Contact : metmap@orbifly.com




SOURCES & CREDITS :

   NOAA       Earth
Advisory